Apj Shirin — 3EVS6 — position and weather

sailwx.info

Track history (hours):
 
Tides and Currents Weather Stations Pressure Air Temp Water Temp Dewpoint Dewpoint Depression Visibility Wind Speed Wind Dir Waves Ship Positions

Apj Shirin

Last reported at 2017-Feb-19 09:32 UTC. Time now 2017-Feb-27 16:01 UTC.
Position N 36°28' E 014°39'.
Warning: this ship's position is 8 days out of date.

Length 189 m; draft 10.1 m.

Type: Cargo ship. MMSI: 373223000.

Date/timePositionNaut miles runAvg speedWind from/ knotsBaromVisibWave heightAir tempDewpointWater temp
2017-Feb-19 09:32N 36°28' E 014°39'1111.4
2017-Feb-19 08:33N 36°29' E 014°25'1211.4
2017-Feb-19 07:33N 36°29' E 014°11'  
2017-Feb-15 22:32N 36°01' W 005°07'1010.7
2017-Feb-15 21:33N 35°59' W 005°20'2211.0
2017-Feb-15 19:33N 35°54' W 005°46'233 9.2
2017-Feb-14 18:14N 37°59' W 009°53'811.7
2017-Feb-14 17:33N 38°06' W 009°55'3411.4
2017-Feb-14 14:32N 38°40' W 010°05'1111.2
2017-Feb-14 13:34N 38°51' W 010°06'1111.0
2017-Feb-14 12:33N 39°02' W 010°05'1111.4
2017-Feb-14 11:33N 39°13' W 010°06'  
2017-Feb-11 19:16N 49°47' W 003°33'710.1
2017-Feb-11 18:33N 49°50' W 003°22'1010.4
2017-Feb-11 17:34N 49°55' W 003°08'1211.4
2017-Feb-11 16:32N 49°60' W 002°52'4414.8
2017-Feb-11 13:33N 50°12' W 001°45'1515.2
2017-Feb-11 12:33N 50°15' W 001°22'3711.2
2017-Feb-11 09:14N 50°24' W 000°26'8 9.4
2017-Feb-11 08:20N 50°27' W 000°13'810.1
2017-Feb-11 07:30N 50°29' W 000°00'1111.3
2017-Feb-11 06:34N 50°32' E 000°16'1312.4
2017-Feb-11 05:31N 50°36' E 000°35'1313.3
2017-Feb-11 04:33N 50°43' E 000°52'1413.0
2017-Feb-11 03:31N 50°51' E 001°09'1111.8
2017-Feb-11 02:34N 50°58' E 001°23'1010.2
2017-Feb-11 01:34N 51°06' E 001°34'9 9.1
2017-Feb-11 00:34N 51°12' E 001°43'1010.0
2017-Feb-10 23:33N 51°20' E 001°54'9 9.3
2017-Feb-10 22:33N 51°23' E 002°07'1312.0
2017-Feb-10 21:31N 51°22' E 002°27'1212.7
2017-Feb-10 20:33N 51°22' E 002°47'1313.3
2017-Feb-10 19:34N 51°24' E 003°08'1413.8
2017-Feb-10 18:33N 51°25' E 003°30'1110.6
2017-Feb-10 17:34N 51°22' E 003°46'1010.4
2017-Feb-10 16:33N 51°24' E 004°02'10 9.4
2017-Feb-10 15:29N 51°19' E 004°16'3 2.9
2017-Feb-10 14:33N 51°17' E 004°15'0 0.5
2017-Feb-10 13:33N 51°16' E 004°15'0 0.0
2017-Feb-10 03:21N 51°16' E 004°15'0 0.0
2017-Feb-10 02:21N 51°16' E 004°15'0 0.0
2017-Feb-10 01:30N 51°16' E 004°15'0 0.0
2017-Feb-10 00:33N 51°16' E 004°15'0 0.0
2017-Feb-09 23:33N 51°16' E 004°15'0 0.0
2017-Feb-09 22:30N 51°16' E 004°15'0 0.0
2017-Feb-09 21:33N 51°16' E 004°15'0 0.0
2017-Feb-09 20:33N 51°16' E 004°15'0 0.0
2017-Feb-09 19:33N 51°16' E 004°15'0 0.0
2017-Feb-09 18:33N 51°16' E 004°15'0 0.0
2017-Feb-09 17:30N 51°16' E 004°15'0 0.0
2017-Feb-09 16:27N 51°16' E 004°15'0 0.0
2017-Feb-09 15:24N 51°16' E 004°15'0 0.0
2017-Feb-09 14:27N 51°16' E 004°15'0 0.0
2017-Feb-09 12:18N 51°16' E 004°15'0 0.0
2017-Feb-09 11:33N 51°16' E 004°15'0 0.0
2017-Feb-09 10:09N 51°16' E 004°15'0 0.0
2017-Feb-09 09:33N 51°16' E 004°15'  
Track history (hours):
 
Tides and Currents Weather Stations Pressure Air Temp Water Temp Dewpoint Dewpoint Depression Visibility Wind Speed Wind Dir Waves Ship Positions

Apj Shirin

Last reported at 2017-Feb-19 09:32 UTC. Time now 2017-Feb-27 16:01 UTC.
Position N 36°28' E 014°39'.
Warning: this ship's position is 8 days out of date.

Length 189 m; draft 10.1 m.

Type: Cargo ship. MMSI: 373223000.

Date/timePositionNaut miles runAvg speedWind from/ knotsBaromVisibWave heightAir tempDewpointWater temp
2017-Feb-19 09:32N 36°28' E 014°39'1111.4
2017-Feb-19 08:33N 36°29' E 014°25'1211.4
2017-Feb-19 07:33N 36°29' E 014°11'  
2017-Feb-15 22:32N 36°01' W 005°07'1010.7
2017-Feb-15 21:33N 35°59' W 005°20'2211.0
2017-Feb-15 19:33N 35°54' W 005°46'233 9.2
2017-Feb-14 18:14N 37°59' W 009°53'811.7
2017-Feb-14 17:33N 38°06' W 009°55'3411.4
2017-Feb-14 14:32N 38°40' W 010°05'1111.2
2017-Feb-14 13:34N 38°51' W 010°06'1111.0
2017-Feb-14 12:33N 39°02' W 010°05'1111.4
2017-Feb-14 11:33N 39°13' W 010°06'  
2017-Feb-11 19:16N 49°47' W 003°33'710.1
2017-Feb-11 18:33N 49°50' W 003°22'1010.4
2017-Feb-11 17:34N 49°55' W 003°08'1211.4
2017-Feb-11 16:32N 49°60' W 002°52'4414.8
2017-Feb-11 13:33N 50°12' W 001°45'1515.2
2017-Feb-11 12:33N 50°15' W 001°22'3711.2
2017-Feb-11 09:14N 50°24' W 000°26'8 9.4
2017-Feb-11 08:20N 50°27' W 000°13'810.1
2017-Feb-11 07:30N 50°29' W 000°00'1111.3
2017-Feb-11 06:34N 50°32' E 000°16'1312.4
2017-Feb-11 05:31N 50°36' E 000°35'1313.3
2017-Feb-11 04:33N 50°43' E 000°52'1413.0
2017-Feb-11 03:31N 50°51' E 001°09'1111.8
2017-Feb-11 02:34N 50°58' E 001°23'1010.2
2017-Feb-11 01:34N 51°06' E 001°34'9 9.1
2017-Feb-11 00:34N 51°12' E 001°43'1010.0
2017-Feb-10 23:33N 51°20' E 001°54'9 9.3
2017-Feb-10 22:33N 51°23' E 002°07'1312.0
2017-Feb-10 21:31N 51°22' E 002°27'1212.7
2017-Feb-10 20:33N 51°22' E 002°47'1313.3
2017-Feb-10 19:34N 51°24' E 003°08'1413.8
2017-Feb-10 18:33N 51°25' E 003°30'1110.6
2017-Feb-10 17:34N 51°22' E 003°46'1010.4
2017-Feb-10 16:33N 51°24' E 004°02'10 9.4
2017-Feb-10 15:29N 51°19' E 004°16'3 2.9
2017-Feb-10 14:33N 51°17' E 004°15'0 0.5
2017-Feb-10 13:33N 51°16' E 004°15'0 0.0
2017-Feb-10 03:21N 51°16' E 004°15'0 0.0
2017-Feb-10 02:21N 51°16' E 004°15'0 0.0
2017-Feb-10 01:30N 51°16' E 004°15'0 0.0
2017-Feb-10 00:33N 51°16' E 004°15'0 0.0
2017-Feb-09 23:33N 51°16' E 004°15'0 0.0
2017-Feb-09 22:30N 51°16' E 004°15'0 0.0
2017-Feb-09 21:33N 51°16' E 004°15'0 0.0
2017-Feb-09 20:33N 51°16' E 004°15'0 0.0
2017-Feb-09 19:33N 51°16' E 004°15'0 0.0
2017-Feb-09 18:33N 51°16' E 004°15'0 0.0
2017-Feb-09 17:30N 51°16' E 004°15'0 0.0
2017-Feb-09 16:27N 51°16' E 004°15'0 0.0
2017-Feb-09 15:24N 51°16' E 004°15'0 0.0
2017-Feb-09 14:27N 51°16' E 004°15'0 0.0
2017-Feb-09 12:18N 51°16' E 004°15'0 0.0
2017-Feb-09 11:33N 51°16' E 004°15'0 0.0
2017-Feb-09 10:09N 51°16' E 004°15'0 0.0
2017-Feb-09 09:33N 51°16' E 004°15'  

Dump ship's entire track history